sensor_id;sensor_type;location;lat;lon;timestamp;P1;durP1;ratioP1;P2;durP2;ratioP2
56122;SDS011;42426;46.104;19.656;2023-04-15T00:00:14;11.13;;;8.02;;
56122;SDS011;42426;46.104;19.656;2023-04-15T00:02:41;9.95;;;6.60;;
56122;SDS011;42426;46.104;19.656;2023-04-15T00:05:08;9.57;;;6.30;;
56122;SDS011;42426;46.104;19.656;2023-04-15T00:07:34;8.65;;;6.57;;
56122;SDS011;42426;46.104;19.656;2023-04-15T00:10:00;9.10;;;5.82;;
56122;SDS011;42426;46.104;19.656;2023-04-15T00:12:26;8.50;;;6.18;;
56122;SDS011;42426;46.104;19.656;2023-04-15T00:14:52;8.18;;;5.85;;
56122;SDS011;42426;46.104;19.656;2023-04-15T00:17:21;10.85;;;6.18;;
56122;SDS011;42426;46.104;19.656;2023-04-15T00:19:56;9.32;;;6.40;;
56122;SDS011;42426;46.104;19.656;2023-04-15T00:22:36;9.55;;;6.72;;
56122;SDS011;42426;46.104;19.656;2023-04-15T00:25:02;9.55;;;6.07;;
56122;SDS011;42426;46.104;19.656;2023-04-15T00:27:28;9.35;;;5.53;;
56122;SDS011;42426;46.104;19.656;2023-04-15T00:29:54;8.30;;;6.15;;
56122;SDS011;42426;46.104;19.656;2023-04-15T00:32:26;8.00;;;5.97;;
56122;SDS011;42426;46.104;19.656;2023-04-15T00:34:52;7.97;;;5.22;;
56122;SDS011;42426;46.104;19.656;2023-04-15T00:37:17;6.78;;;5.15;;
56122;SDS011;42426;46.104;19.656;2023-04-15T00:39:44;10.35;;;6.40;;
56122;SDS011;42426;46.104;19.656;2023-04-15T00:42:12;9.57;;;6.28;;
56122;SDS011;42426;46.104;19.656;2023-04-15T00:44:38;11.15;;;6.80;;
56122;SDS011;42426;46.104;19.656;2023-04-15T00:47:03;9.50;;;6.28;;
56122;SDS011;42426;46.104;19.656;2023-04-15T00:49:30;9.68;;;7.75;;
56122;SDS011;42426;46.104;19.656;2023-04-15T00:52:02;9.57;;;7.45;;
56122;SDS011;42426;46.104;19.656;2023-04-15T00:54:31;10.88;;;7.55;;
56122;SDS011;42426;46.104;19.656;2023-04-15T00:56:56;11.00;;;7.50;;
56122;SDS011;42426;46.104;19.656;2023-04-15T00:59:23;12.68;;;8.73;;
56122;SDS011;42426;46.104;19.656;2023-04-15T01:01:49;11.70;;;7.47;;
56122;SDS011;42426;46.104;19.656;2023-04-15T01:04:21;10.85;;;7.78;;
56122;SDS011;42426;46.104;19.656;2023-04-15T01:06:46;10.48;;;8.25;;
56122;SDS011;42426;46.104;19.656;2023-04-15T01:09:12;13.45;;;9.45;;
56122;SDS011;42426;46.104;19.656;2023-04-15T01:11:38;11.88;;;8.50;;
56122;SDS011;42426;46.104;19.656;2023-04-15T01:14:04;11.63;;;7.38;;
56122;SDS011;42426;46.104;19.656;2023-04-15T01:16:35;15.60;;;8.57;;
56122;SDS011;42426;46.104;19.656;2023-04-15T01:19:05;13.15;;;8.75;;
56122;SDS011;42426;46.104;19.656;2023-04-15T01:21:41;13.82;;;7.95;;
56122;SDS011;42426;46.104;19.656;2023-04-15T01:24:08;13.07;;;8.27;;
56122;SDS011;42426;46.104;19.656;2023-04-15T01:26:39;11.10;;;8.02;;
56122;SDS011;42426;46.104;19.656;2023-04-15T01:29:05;12.20;;;8.18;;
56122;SDS011;42426;46.104;19.656;2023-04-15T01:31:34;12.20;;;8.65;;
56122;SDS011;42426;46.104;19.656;2023-04-15T01:34:03;11.25;;;8.20;;
56122;SDS011;42426;46.104;19.656;2023-04-15T01:36:29;11.55;;;8.20;;
56122;SDS011;42426;46.104;19.656;2023-04-15T01:38:58;13.32;;;9.13;;
56122;SDS011;42426;46.104;19.656;2023-04-15T01:41:24;14.27;;;8.73;;
56122;SDS011;42426;46.104;19.656;2023-04-15T01:43:54;10.65;;;7.80;;
56122;SDS011;42426;46.104;19.656;2023-04-15T01:46:19;10.50;;;8.18;;
56122;SDS011;42426;46.104;19.656;2023-04-15T01:48:45;13.45;;;8.95;;
56122;SDS011;42426;46.104;19.656;2023-04-15T01:51:11;11.68;;;8.93;;
56122;SDS011;42426;46.104;19.656;2023-04-15T01:53:37;11.90;;;8.05;;
56122;SDS011;42426;46.104;19.656;2023-04-15T01:56:03;16.75;;;10.15;;
56122;SDS011;42426;46.104;19.656;2023-04-15T01:58:28;12.15;;;8.82;;
56122;SDS011;42426;46.104;19.656;2023-04-15T02:00:55;14.32;;;8.73;;
56122;SDS011;42426;46.104;19.656;2023-04-15T02:03:21;11.50;;;9.05;;
56122;SDS011;42426;46.104;19.656;2023-04-15T02:05:47;10.68;;;7.28;;
56122;SDS011;42426;46.104;19.656;2023-04-15T02:08:13;11.50;;;7.93;;
56122;SDS011;42426;46.104;19.656;2023-04-15T02:10:39;15.73;;;9.07;;
56122;SDS011;42426;46.104;19.656;2023-04-15T02:13:04;9.82;;;7.97;;
56122;SDS011;42426;46.104;19.656;2023-04-15T02:15:30;10.50;;;7.22;;
56122;SDS011;42426;46.104;19.656;2023-04-15T02:17:57;10.18;;;7.45;;
56122;SDS011;42426;46.104;19.656;2023-04-15T02:20:24;11.05;;;7.00;;
56122;SDS011;42426;46.104;19.656;2023-04-15T02:22:50;13.80;;;7.13;;
56122;SDS011;42426;46.104;19.656;2023-04-15T02:25:16;11.18;;;7.25;;
56122;SDS011;42426;46.104;19.656;2023-04-15T02:27:42;8.45;;;6.90;;
56122;SDS011;42426;46.104;19.656;2023-04-15T02:30:08;10.15;;;7.68;;
56122;SDS011;42426;46.104;19.656;2023-04-15T02:32:34;8.43;;;7.43;;
56122;SDS011;42426;46.104;19.656;2023-04-15T02:35:05;9.35;;;7.30;;
56122;SDS011;42426;46.104;19.656;2023-04-15T02:37:32;10.85;;;7.25;;
56122;SDS011;42426;46.104;19.656;2023-04-15T02:40:06;9.88;;;7.90;;
56122;SDS011;42426;46.104;19.656;2023-04-15T02:42:34;11.88;;;8.00;;
56122;SDS011;42426;46.104;19.656;2023-04-15T02:45:03;9.48;;;8.00;;
56122;SDS011;42426;46.104;19.656;2023-04-15T02:50:11;10.27;;;8.10;;
56122;SDS011;42426;46.104;19.656;2023-04-15T02:52:41;10.82;;;8.00;;
56122;SDS011;42426;46.104;19.656;2023-04-15T02:55:07;12.20;;;7.70;;
56122;SDS011;42426;46.104;19.656;2023-04-15T02:57:34;9.88;;;8.07;;
56122;SDS011;42426;46.104;19.656;2023-04-15T03:00:05;12.27;;;8.88;;
56122;SDS011;42426;46.104;19.656;2023-04-15T03:02:37;13.13;;;8.43;;
56122;SDS011;42426;46.104;19.656;2023-04-15T03:05:03;11.43;;;8.15;;
56122;SDS011;42426;46.104;19.656;2023-04-15T03:07:30;12.60;;;8.18;;
56122;SDS011;42426;46.104;19.656;2023-04-15T03:09:56;9.63;;;7.35;;
56122;SDS011;42426;46.104;19.656;2023-04-15T03:12:22;15.32;;;9.45;;
56122;SDS011;42426;46.104;19.656;2023-04-15T03:14:47;9.65;;;7.40;;
56122;SDS011;42426;46.104;19.656;2023-04-15T03:17:13;10.63;;;8.38;;
56122;SDS011;42426;46.104;19.656;2023-04-15T03:19:40;14.23;;;9.35;;
56122;SDS011;42426;46.104;19.656;2023-04-15T03:22:08;10.98;;;8.20;;
56122;SDS011;42426;46.104;19.656;2023-04-15T03:24:37;11.70;;;7.93;;
56122;SDS011;42426;46.104;19.656;2023-04-15T03:27:03;11.23;;;8.15;;
56122;SDS011;42426;46.104;19.656;2023-04-15T03:29:33;10.73;;;8.38;;
56122;SDS011;42426;46.104;19.656;2023-04-15T03:32:00;11.57;;;9.38;;
56122;SDS011;42426;46.104;19.656;2023-04-15T03:34:26;10.18;;;8.45;;
56122;SDS011;42426;46.104;19.656;2023-04-15T03:36:51;11.63;;;9.43;;
56122;SDS011;42426;46.104;19.656;2023-04-15T03:39:17;14.73;;;10.02;;
56122;SDS011;42426;46.104;19.656;2023-04-15T03:41:43;15.38;;;9.57;;
56122;SDS011;42426;46.104;19.656;2023-04-15T03:44:12;12.57;;;9.10;;
56122;SDS011;42426;46.104;19.656;2023-04-15T03:46:37;11.60;;;8.57;;
56122;SDS011;42426;46.104;19.656;2023-04-15T03:49:05;11.85;;;10.38;;
56122;SDS011;42426;46.104;19.656;2023-04-15T03:51:31;12.10;;;9.05;;
56122;SDS011;42426;46.104;19.656;2023-04-15T03:53:56;14.68;;;9.65;;
56122;SDS011;42426;46.104;19.656;2023-04-15T03:56:23;12.40;;;9.63;;
56122;SDS011;42426;46.104;19.656;2023-04-15T03:58:48;11.18;;;7.90;;
56122;SDS011;42426;46.104;19.656;2023-04-15T04:01:17;12.32;;;9.10;;
56122;SDS011;42426;46.104;19.656;2023-04-15T04:03:46;15.48;;;10.15;;
56122;SDS011;42426;46.104;19.656;2023-04-15T04:06:15;11.00;;;9.48;;
56122;SDS011;42426;46.104;19.656;2023-04-15T04:08:41;12.98;;;9.07;;
56122;SDS011;42426;46.104;19.656;2023-04-15T04:11:06;12.63;;;9.52;;
56122;SDS011;42426;46.104;19.656;2023-04-15T04:13:32;12.80;;;9.35;;
56122;SDS011;42426;46.104;19.656;2023-04-15T04:15:58;13.80;;;9.85;;
56122;SDS011;42426;46.104;19.656;2023-04-15T04:18:23;15.73;;;11.18;;
56122;SDS011;42426;46.104;19.656;2023-04-15T04:20:49;14.02;;;10.98;;
56122;SDS011;42426;46.104;19.656;2023-04-15T04:23:15;16.45;;;10.55;;
56122;SDS011;42426;46.104;19.656;2023-04-15T04:25:44;15.20;;;10.70;;
56122;SDS011;42426;46.104;19.656;2023-04-15T04:28:10;15.70;;;10.95;;
56122;SDS011;42426;46.104;19.656;2023-04-15T04:30:36;14.63;;;10.60;;
56122;SDS011;42426;46.104;19.656;2023-04-15T04:33:02;14.90;;;11.27;;
56122;SDS011;42426;46.104;19.656;2023-04-15T04:35:27;18.08;;;10.80;;
56122;SDS011;42426;46.104;19.656;2023-04-15T04:37:53;16.67;;;12.38;;
56122;SDS011;42426;46.104;19.656;2023-04-15T04:40:19;19.60;;;11.63;;
56122;SDS011;42426;46.104;19.656;2023-04-15T04:42:45;15.90;;;11.55;;
56122;SDS011;42426;46.104;19.656;2023-04-15T04:45:11;19.25;;;12.57;;
56122;SDS011;42426;46.104;19.656;2023-04-15T04:47:37;15.80;;;12.20;;
56122;SDS011;42426;46.104;19.656;2023-04-15T04:50:03;14.38;;;11.18;;
56122;SDS011;42426;46.104;19.656;2023-04-15T04:52:29;16.83;;;11.15;;
56122;SDS011;42426;46.104;19.656;2023-04-15T04:54:55;15.15;;;10.65;;
56122;SDS011;42426;46.104;19.656;2023-04-15T04:57:20;14.27;;;10.98;;
56122;SDS011;42426;46.104;19.656;2023-04-15T04:59:46;17.05;;;10.90;;
56122;SDS011;42426;46.104;19.656;2023-04-15T05:02:12;15.68;;;10.27;;
56122;SDS011;42426;46.104;19.656;2023-04-15T05:04:38;16.27;;;10.27;;
56122;SDS011;42426;46.104;19.656;2023-04-15T05:07:03;11.60;;;9.07;;
56122;SDS011;42426;46.104;19.656;2023-04-15T05:09:29;13.07;;;10.13;;
56122;SDS011;42426;46.104;19.656;2023-04-15T05:11:57;15.15;;;9.00;;
56122;SDS011;42426;46.104;19.656;2023-04-15T05:14:22;15.30;;;10.90;;
56122;SDS011;42426;46.104;19.656;2023-04-15T05:16:48;13.55;;;10.25;;
56122;SDS011;42426;46.104;19.656;2023-04-15T05:19:17;13.82;;;10.13;;
56122;SDS011;42426;46.104;19.656;2023-04-15T05:21:43;11.50;;;9.82;;
56122;SDS011;42426;46.104;19.656;2023-04-15T05:24:09;19.45;;;9.80;;
56122;SDS011;42426;46.104;19.656;2023-04-15T05:26:34;12.23;;;10.18;;
56122;SDS011;42426;46.104;19.656;2023-04-15T05:29:01;13.32;;;9.80;;
56122;SDS011;42426;46.104;19.656;2023-04-15T05:31:26;13.10;;;9.32;;
56122;SDS011;42426;46.104;19.656;2023-04-15T05:33:52;14.25;;;9.77;;
56122;SDS011;42426;46.104;19.656;2023-04-15T05:36:19;11.50;;;9.05;;
56122;SDS011;42426;46.104;19.656;2023-04-15T05:38:45;15.05;;;10.52;;
56122;SDS011;42426;46.104;19.656;2023-04-15T05:41:10;13.82;;;9.93;;
56122;SDS011;42426;46.104;19.656;2023-04-15T05:43:36;18.17;;;10.80;;
56122;SDS011;42426;46.104;19.656;2023-04-15T05:46:02;12.98;;;10.02;;
56122;SDS011;42426;46.104;19.656;2023-04-15T05:48:28;14.95;;;10.95;;
56122;SDS011;42426;46.104;19.656;2023-04-15T05:50:53;18.92;;;10.70;;
56122;SDS011;42426;46.104;19.656;2023-04-15T05:53:19;16.90;;;11.70;;
56122;SDS011;42426;46.104;19.656;2023-04-15T05:55:45;14.75;;;11.07;;
56122;SDS011;42426;46.104;19.656;2023-04-15T05:58:11;14.80;;;9.65;;
56122;SDS011;42426;46.104;19.656;2023-04-15T06:00:37;15.32;;;10.55;;
56122;SDS011;42426;46.104;19.656;2023-04-15T06:03:02;15.60;;;10.82;;
56122;SDS011;42426;46.104;19.656;2023-04-15T06:05:28;15.43;;;10.60;;
56122;SDS011;42426;46.104;19.656;2023-04-15T06:07:54;13.98;;;9.70;;
56122;SDS011;42426;46.104;19.656;2023-04-15T06:10:20;14.00;;;9.77;;
56122;SDS011;42426;46.104;19.656;2023-04-15T06:12:46;13.93;;;9.02;;
56122;SDS011;42426;46.104;19.656;2023-04-15T06:15:18;13.00;;;9.15;;
56122;SDS011;42426;46.104;19.656;2023-04-15T06:17:44;12.65;;;9.70;;
56122;SDS011;42426;46.104;19.656;2023-04-15T06:20:10;13.10;;;9.27;;
56122;SDS011;42426;46.104;19.656;2023-04-15T06:22:36;11.40;;;8.30;;
56122;SDS011;42426;46.104;19.656;2023-04-15T06:25:06;12.80;;;8.13;;
56122;SDS011;42426;46.104;19.656;2023-04-15T06:27:35;11.93;;;8.75;;
56122;SDS011;42426;46.104;19.656;2023-04-15T06:30:00;11.70;;;8.75;;
56122;SDS011;42426;46.104;19.656;2023-04-15T06:32:26;11.57;;;8.40;;
56122;SDS011;42426;46.104;19.656;2023-04-15T06:37:48;12.50;;;9.02;;
56122;SDS011;42426;46.104;19.656;2023-04-15T06:40:14;12.90;;;8.95;;
56122;SDS011;42426;46.104;19.656;2023-04-15T06:42:40;10.30;;;8.13;;
56122;SDS011;42426;46.104;19.656;2023-04-15T06:45:06;9.85;;;8.02;;
56122;SDS011;42426;46.104;19.656;2023-04-15T06:47:35;10.70;;;7.90;;
56122;SDS011;42426;46.104;19.656;2023-04-15T06:50:19;13.65;;;8.27;;
56122;SDS011;42426;46.104;19.656;2023-04-15T06:52:44;11.98;;;8.93;;
56122;SDS011;42426;46.104;19.656;2023-04-15T06:55:11;10.75;;;8.40;;
56122;SDS011;42426;46.104;19.656;2023-04-15T06:57:37;12.15;;;8.05;;
56122;SDS011;42426;46.104;19.656;2023-04-15T07:00:03;13.43;;;8.65;;
56122;SDS011;42426;46.104;19.656;2023-04-15T07:02:29;11.90;;;7.68;;
56122;SDS011;42426;46.104;19.656;2023-04-15T07:04:59;11.48;;;8.50;;
56122;SDS011;42426;46.104;19.656;2023-04-15T07:07:25;14.18;;;8.05;;
56122;SDS011;42426;46.104;19.656;2023-04-15T07:09:51;10.50;;;8.07;;
56122;SDS011;42426;46.104;19.656;2023-04-15T07:12:17;14.45;;;9.20;;
56122;SDS011;42426;46.104;19.656;2023-04-15T07:14:43;11.43;;;7.97;;
56122;SDS011;42426;46.104;19.656;2023-04-15T07:17:21;10.85;;;7.97;;
56122;SDS011;42426;46.104;19.656;2023-04-15T07:19:50;12.35;;;8.23;;
56122;SDS011;42426;46.104;19.656;2023-04-15T07:22:18;15.48;;;8.85;;
56122;SDS011;42426;46.104;19.656;2023-04-15T07:24:43;11.88;;;8.20;;
56122;SDS011;42426;46.104;19.656;2023-04-15T07:27:10;12.82;;;8.88;;
56122;SDS011;42426;46.104;19.656;2023-04-15T07:29:36;10.60;;;8.15;;
56122;SDS011;42426;46.104;19.656;2023-04-15T07:32:02;13.70;;;8.73;;
56122;SDS011;42426;46.104;19.656;2023-04-15T07:34:27;12.60;;;8.35;;
56122;SDS011;42426;46.104;19.656;2023-04-15T07:36:53;17.85;;;9.43;;
56122;SDS011;42426;46.104;19.656;2023-04-15T07:39:22;13.50;;;8.40;;
56122;SDS011;42426;46.104;19.656;2023-04-15T07:41:47;10.55;;;6.90;;
56122;SDS011;42426;46.104;19.656;2023-04-15T07:44:13;9.73;;;6.82;;
56122;SDS011;42426;46.104;19.656;2023-04-15T07:46:39;9.45;;;7.13;;
56122;SDS011;42426;46.104;19.656;2023-04-15T07:49:05;9.82;;;6.57;;
56122;SDS011;42426;46.104;19.656;2023-04-15T07:51:31;11.38;;;6.97;;
56122;SDS011;42426;46.104;19.656;2023-04-15T07:53:57;12.98;;;8.27;;
56122;SDS011;42426;46.104;19.656;2023-04-15T07:56:23;25.13;;;22.58;;
56122;SDS011;42426;46.104;19.656;2023-04-15T07:58:49;12.80;;;10.75;;
56122;SDS011;42426;46.104;19.656;2023-04-15T08:01:14;12.70;;;9.85;;
56122;SDS011;42426;46.104;19.656;2023-04-15T08:03:40;22.95;;;15.82;;
56122;SDS011;42426;46.104;19.656;2023-04-15T08:06:07;6.47;;;5.13;;
56122;SDS011;42426;46.104;19.656;2023-04-15T08:08:34;6.03;;;5.10;;
56122;SDS011;42426;46.104;19.656;2023-04-15T08:11:00;9.20;;;5.30;;
56122;SDS011;42426;46.104;19.656;2023-04-15T08:13:27;5.80;;;4.10;;
56122;SDS011;42426;46.104;19.656;2023-04-15T08:16:12;5.75;;;3.92;;
56122;SDS011;42426;46.104;19.656;2023-04-15T08:18:43;18.35;;;16.17;;
56122;SDS011;42426;46.104;19.656;2023-04-15T08:21:11;15.18;;;10.95;;
56122;SDS011;42426;46.104;19.656;2023-04-15T08:23:37;10.43;;;7.38;;
56122;SDS011;42426;46.104;19.656;2023-04-15T08:26:07;7.18;;;5.03;;
56122;SDS011;42426;46.104;19.656;2023-04-15T08:28:33;9.07;;;3.92;;
56122;SDS011;42426;46.104;19.656;2023-04-15T08:30:59;6.07;;;3.83;;
56122;SDS011;42426;46.104;19.656;2023-04-15T08:33:28;8.80;;;5.03;;
56122;SDS011;42426;46.104;19.656;2023-04-15T08:35:58;8.73;;;5.07;;
56122;SDS011;42426;46.104;19.656;2023-04-15T08:38:27;7.07;;;4.22;;
56122;SDS011;42426;46.104;19.656;2023-04-15T08:40:52;7.13;;;4.55;;
56122;SDS011;42426;46.104;19.656;2023-04-15T08:43:21;10.00;;;4.38;;
56122;SDS011;42426;46.104;19.656;2023-04-15T08:45:52;6.93;;;4.47;;
56122;SDS011;42426;46.104;19.656;2023-04-15T08:48:19;7.18;;;4.07;;
56122;SDS011;42426;46.104;19.656;2023-04-15T08:50:46;6.72;;;3.95;;
56122;SDS011;42426;46.104;19.656;2023-04-15T08:53:15;11.80;;;4.82;;
56122;SDS011;42426;46.104;19.656;2023-04-15T08:55:44;5.65;;;4.18;;
56122;SDS011;42426;46.104;19.656;2023-04-15T08:58:11;6.90;;;4.00;;
56122;SDS011;42426;46.104;19.656;2023-04-15T09:00:41;6.07;;;4.25;;
56122;SDS011;42426;46.104;19.656;2023-04-15T09:03:10;6.85;;;4.20;;
56122;SDS011;42426;46.104;19.656;2023-04-15T09:05:36;7.97;;;4.80;;
56122;SDS011;42426;46.104;19.656;2023-04-15T09:08:03;5.45;;;3.60;;
56122;SDS011;42426;46.104;19.656;2023-04-15T09:10:30;6.97;;;3.67;;
56122;SDS011;42426;46.104;19.656;2023-04-15T09:12:57;6.38;;;3.78;;
56122;SDS011;42426;46.104;19.656;2023-04-15T09:15:26;6.68;;;3.97;;
56122;SDS011;42426;46.104;19.656;2023-04-15T09:17:53;5.75;;;3.85;;
56122;SDS011;42426;46.104;19.656;2023-04-15T09:20:22;7.03;;;3.80;;
56122;SDS011;42426;46.104;19.656;2023-04-15T09:22:49;5.90;;;3.65;;
56122;SDS011;42426;46.104;19.656;2023-04-15T09:27:55;4.07;;;3.03;;
56122;SDS011;42426;46.104;19.656;2023-04-15T09:30:22;4.55;;;2.72;;
56122;SDS011;42426;46.104;19.656;2023-04-15T09:32:52;4.35;;;2.40;;
56122;SDS011;42426;46.104;19.656;2023-04-15T09:35:22;5.35;;;2.92;;
56122;SDS011;42426;46.104;19.656;2023-04-15T09:37:50;4.18;;;2.92;;
56122;SDS011;42426;46.104;19.656;2023-04-15T09:43:06;4.68;;;3.25;;
56122;SDS011;42426;46.104;19.656;2023-04-15T09:45:33;4.63;;;3.00;;
56122;SDS011;42426;46.104;19.656;2023-04-15T09:50:42;4.65;;;3.15;;
56122;SDS011;42426;46.104;19.656;2023-04-15T09:53:08;3.03;;;2.30;;
56122;SDS011;42426;46.104;19.656;2023-04-15T09:55:36;5.57;;;3.30;;
56122;SDS011;42426;46.104;19.656;2023-04-15T09:58:07;3.85;;;2.92;;
56122;SDS011;42426;46.104;19.656;2023-04-15T10:00:34;4.93;;;3.38;;
56122;SDS011;42426;46.104;19.656;2023-04-15T10:03:02;3.70;;;2.67;;
56122;SDS011;42426;46.104;19.656;2023-04-15T10:05:29;5.93;;;3.55;;
56122;SDS011;42426;46.104;19.656;2023-04-15T10:07:56;4.50;;;2.20;;
56122;SDS011;42426;46.104;19.656;2023-04-15T10:10:22;3.10;;;2.28;;
56122;SDS011;42426;46.104;19.656;2023-04-15T10:12:48;3.97;;;2.60;;
56122;SDS011;42426;46.104;19.656;2023-04-15T10:15:16;6.38;;;2.78;;
56122;SDS011;42426;46.104;19.656;2023-04-15T10:17:43;5.50;;;4.55;;
56122;SDS011;42426;46.104;19.656;2023-04-15T10:20:10;5.93;;;3.28;;
56122;SDS011;42426;46.104;19.656;2023-04-15T10:22:37;3.05;;;2.75;;
56122;SDS011;42426;46.104;19.656;2023-04-15T10:25:03;4.05;;;2.47;;
56122;SDS011;42426;46.104;19.656;2023-04-15T10:27:31;3.58;;;2.53;;
56122;SDS011;42426;46.104;19.656;2023-04-15T10:29:59;8.40;;;4.75;;
56122;SDS011;42426;46.104;19.656;2023-04-15T10:32:27;2.60;;;2.40;;
56122;SDS011;42426;46.104;19.656;2023-04-15T10:34:54;2.92;;;2.45;;
56122;SDS011;42426;46.104;19.656;2023-04-15T10:37:21;4.07;;;2.20;;
56122;SDS011;42426;46.104;19.656;2023-04-15T10:39:48;2.78;;;2.08;;
56122;SDS011;42426;46.104;19.656;2023-04-15T10:42:15;3.45;;;2.42;;
56122;SDS011;42426;46.104;19.656;2023-04-15T10:44:43;2.15;;;1.88;;
56122;SDS011;42426;46.104;19.656;2023-04-15T10:47:13;2.85;;;2.40;;
56122;SDS011;42426;46.104;19.656;2023-04-15T10:49:55;2.30;;;2.08;;
56122;SDS011;42426;46.104;19.656;2023-04-15T10:52:23;4.90;;;2.50;;
56122;SDS011;42426;46.104;19.656;2023-04-15T10:54:50;2.75;;;2.38;;
56122;SDS011;42426;46.104;19.656;2023-04-15T10:57:27;3.17;;;2.60;;
56122;SDS011;42426;46.104;19.656;2023-04-15T11:00:09;5.57;;;1.90;;
56122;SDS011;42426;46.104;19.656;2023-04-15T11:02:50;5.30;;;2.88;;
56122;SDS011;42426;46.104;19.656;2023-04-15T11:05:17;4.20;;;3.80;;
56122;SDS011;42426;46.104;19.656;2023-04-15T11:07:51;2.70;;;2.40;;
56122;SDS011;42426;46.104;19.656;2023-04-15T11:12:45;3.65;;;2.60;;
56122;SDS011;42426;46.104;19.656;2023-04-15T11:15:31;4.22;;;3.05;;
56122;SDS011;42426;46.104;19.656;2023-04-15T11:18:14;9.23;;;3.05;;
56122;SDS011;42426;46.104;19.656;2023-04-15T11:20:42;6.70;;;4.20;;
56122;SDS011;42426;46.104;19.656;2023-04-15T11:23:26;5.78;;;4.57;;
56122;SDS011;42426;46.104;19.656;2023-04-15T11:25:57;7.72;;;5.40;;
56122;SDS011;42426;46.104;19.656;2023-04-15T11:28:24;10.88;;;6.80;;
56122;SDS011;42426;46.104;19.656;2023-04-15T11:30:51;6.00;;;4.13;;
56122;SDS011;42426;46.104;19.656;2023-04-15T11:33:18;5.70;;;3.72;;
56122;SDS011;42426;46.104;19.656;2023-04-15T11:35:44;7.13;;;3.78;;
56122;SDS011;42426;46.104;19.656;2023-04-15T11:38:11;6.60;;;3.72;;
56122;SDS011;42426;46.104;19.656;2023-04-15T11:40:41;26.35;;;4.93;;
56122;SDS011;42426;46.104;19.656;2023-04-15T11:43:14;7.65;;;3.83;;
56122;SDS011;42426;46.104;19.656;2023-04-15T11:46:02;6.35;;;3.63;;
56122;SDS011;42426;46.104;19.656;2023-04-15T11:48:32;4.13;;;3.30;;
56122;SDS011;42426;46.104;19.656;2023-04-15T11:51:01;5.07;;;4.38;;
56122;SDS011;42426;46.104;19.656;2023-04-15T11:56:27;4.47;;;3.50;;
56122;SDS011;42426;46.104;19.656;2023-04-15T11:58:53;6.43;;;3.40;;
56122;SDS011;42426;46.104;19.656;2023-04-15T12:01:33;6.75;;;3.78;;
56122;SDS011;42426;46.104;19.656;2023-04-15T12:04:00;5.55;;;3.75;;
56122;SDS011;42426;46.104;19.656;2023-04-15T12:06:37;5.13;;;3.50;;
56122;SDS011;42426;46.104;19.656;2023-04-15T12:09:07;5.82;;;5.10;;
56122;SDS011;42426;46.104;19.656;2023-04-15T12:11:41;7.82;;;3.80;;
56122;SDS011;42426;46.104;19.656;2023-04-15T12:14:18;5.97;;;3.30;;
56122;SDS011;42426;46.104;19.656;2023-04-15T12:16:54;5.10;;;3.65;;
56122;SDS011;42426;46.104;19.656;2023-04-15T12:19:28;3.85;;;2.95;;
56122;SDS011;42426;46.104;19.656;2023-04-15T12:22:11;5.43;;;3.20;;
56122;SDS011;42426;46.104;19.656;2023-04-15T12:24:44;4.95;;;3.30;;
56122;SDS011;42426;46.104;19.656;2023-04-15T12:27:14;6.53;;;4.28;;
56122;SDS011;42426;46.104;19.656;2023-04-15T12:29:41;7.63;;;4.32;;
56122;SDS011;42426;46.104;19.656;2023-04-15T12:32:11;6.53;;;3.95;;
56122;SDS011;42426;46.104;19.656;2023-04-15T12:37:15;6.43;;;4.15;;
56122;SDS011;42426;46.104;19.656;2023-04-15T12:39:42;7.15;;;4.30;;
56122;SDS011;42426;46.104;19.656;2023-04-15T12:42:15;6.30;;;4.50;;
56122;SDS011;42426;46.104;19.656;2023-04-15T12:44:42;5.63;;;3.90;;
56122;SDS011;42426;46.104;19.656;2023-04-15T12:47:12;10.10;;;3.97;;
56122;SDS011;42426;46.104;19.656;2023-04-15T12:49:39;4.40;;;3.33;;
56122;SDS011;42426;46.104;19.656;2023-04-15T12:52:05;3.58;;;2.97;;
56122;SDS011;42426;46.104;19.656;2023-04-15T12:54:30;10.55;;;6.78;;
56122;SDS011;42426;46.104;19.656;2023-04-15T12:56:58;6.15;;;3.80;;
56122;SDS011;42426;46.104;19.656;2023-04-15T12:59:27;5.53;;;3.08;;
56122;SDS011;42426;46.104;19.656;2023-04-15T13:01:53;5.07;;;3.45;;
56122;SDS011;42426;46.104;19.656;2023-04-15T13:04:31;6.25;;;3.92;;
56122;SDS011;42426;46.104;19.656;2023-04-15T13:06:57;3.53;;;2.65;;
56122;SDS011;42426;46.104;19.656;2023-04-15T13:09:23;5.57;;;3.47;;
56122;SDS011;42426;46.104;19.656;2023-04-15T13:11:49;5.93;;;4.32;;
56122;SDS011;42426;46.104;19.656;2023-04-15T13:14:18;4.32;;;3.40;;
56122;SDS011;42426;46.104;19.656;2023-04-15T13:16:58;4.40;;;3.47;;
56122;SDS011;42426;46.104;19.656;2023-04-15T13:19:24;3.85;;;3.05;;
56122;SDS011;42426;46.104;19.656;2023-04-15T13:21:49;4.00;;;3.45;;
56122;SDS011;42426;46.104;19.656;2023-04-15T13:24:15;4.85;;;2.50;;
56122;SDS011;42426;46.104;19.656;2023-04-15T13:26:41;5.20;;;3.42;;
56122;SDS011;42426;46.104;19.656;2023-04-15T13:29:07;4.55;;;3.35;;
56122;SDS011;42426;46.104;19.656;2023-04-15T13:31:32;3.63;;;2.50;;
56122;SDS011;42426;46.104;19.656;2023-04-15T13:34:01;7.10;;;4.28;;
56122;SDS011;42426;46.104;19.656;2023-04-15T13:36:33;6.07;;;4.28;;
56122;SDS011;42426;46.104;19.656;2023-04-15T13:38:59;6.35;;;4.20;;
56122;SDS011;42426;46.104;19.656;2023-04-15T13:41:25;8.02;;;5.00;;
56122;SDS011;42426;46.104;19.656;2023-04-15T13:43:50;7.20;;;5.20;;
56122;SDS011;42426;46.104;19.656;2023-04-15T13:46:19;7.40;;;5.03;;
56122;SDS011;42426;46.104;19.656;2023-04-15T13:48:45;9.10;;;6.22;;
56122;SDS011;42426;46.104;19.656;2023-04-15T13:51:13;7.45;;;4.43;;
56122;SDS011;42426;46.104;19.656;2023-04-15T13:53:42;8.13;;;5.90;;
56122;SDS011;42426;46.104;19.656;2023-04-15T13:56:07;6.95;;;4.63;;
56122;SDS011;42426;46.104;19.656;2023-04-15T13:58:43;8.27;;;4.47;;
56122;SDS011;42426;46.104;19.656;2023-04-15T14:01:11;7.07;;;4.45;;
56122;SDS011;42426;46.104;19.656;2023-04-15T14:03:37;7.63;;;4.00;;
56122;SDS011;42426;46.104;19.656;2023-04-15T14:06:03;6.85;;;4.03;;
56122;SDS011;42426;46.104;19.656;2023-04-15T14:08:30;6.80;;;3.58;;
56122;SDS011;42426;46.104;19.656;2023-04-15T14:10:59;6.95;;;2.70;;
56122;SDS011;42426;46.104;19.656;2023-04-15T14:13:25;3.72;;;2.72;;
56122;SDS011;42426;46.104;19.656;2023-04-15T14:15:51;5.10;;;3.40;;
56122;SDS011;42426;46.104;19.656;2023-04-15T14:18:17;6.65;;;3.30;;
56122;SDS011;42426;46.104;19.656;2023-04-15T14:20:42;4.85;;;3.50;;
56122;SDS011;42426;46.104;19.656;2023-04-15T14:23:08;10.55;;;4.60;;
56122;SDS011;42426;46.104;19.656;2023-04-15T14:25:34;9.45;;;5.20;;
56122;SDS011;42426;46.104;19.656;2023-04-15T14:28:00;6.65;;;3.95;;
56122;SDS011;42426;46.104;19.656;2023-04-15T14:30:26;6.78;;;3.20;;
56122;SDS011;42426;46.104;19.656;2023-04-15T14:32:52;5.65;;;3.22;;
56122;SDS011;42426;46.104;19.656;2023-04-15T14:35:17;6.30;;;4.15;;
56122;SDS011;42426;46.104;19.656;2023-04-15T14:37:43;5.32;;;3.85;;
56122;SDS011;42426;46.104;19.656;2023-04-15T14:40:09;5.22;;;3.17;;
56122;SDS011;42426;46.104;19.656;2023-04-15T14:42:53;2.95;;;2.60;;
56122;SDS011;42426;46.104;19.656;2023-04-15T14:45:18;5.80;;;4.15;;
56122;SDS011;42426;46.104;19.656;2023-04-15T14:47:45;7.40;;;5.45;;
56122;SDS011;42426;46.104;19.656;2023-04-15T14:50:11;10.00;;;4.72;;